createdAt,value
2018-03-29T00:00:39.928Z,94811.44
2018-03-29T00:03:07.883Z,94820.21
2018-03-29T00:05:35.878Z,94822.66
2018-03-29T00:08:03.929Z,94827.80
2018-03-29T00:10:31.953Z,94832.34
2018-03-29T00:13:00.008Z,94831.66
2018-03-29T00:15:28.012Z,94826.02
2018-03-29T00:17:56.056Z,94833.20
2018-03-29T00:20:24.405Z,94828.08
2018-03-29T00:22:52.388Z,94821.73
2018-03-29T00:25:20.395Z,94832.94
2018-03-29T00:27:48.474Z,94826.05
2018-03-29T00:30:16.485Z,94822.52
2018-03-29T00:32:44.528Z,94807.91
2018-03-29T00:35:12.501Z,94803.92
2018-03-29T00:37:40.499Z,94801.09
2018-03-29T00:40:08.471Z,94797.70
2018-03-29T00:42:36.517Z,94793.51
2018-03-29T00:45:04.596Z,94771.67
2018-03-29T00:47:33.706Z,94782.23
2018-03-29T00:50:01.734Z,94775.15
2018-03-29T00:52:29.754Z,94766.17
2018-03-29T00:54:57.739Z,94771.59
2018-03-29T00:57:25.687Z,94777.59
2018-03-29T00:59:53.725Z,94776.59
2018-03-29T01:02:21.722Z,94774.75
2018-03-29T01:04:49.786Z,94779.39
2018-03-29T01:07:17.765Z,94781.92
2018-03-29T01:09:45.831Z,94763.05
2018-03-29T01:12:13.851Z,94774.67
2018-03-29T01:14:41.902Z,94771.36
2018-03-29T01:17:09.932Z,94776.66
2018-03-29T01:19:38.011Z,94776.74
2018-03-29T01:22:06.098Z,94776.05
2018-03-29T01:24:34.142Z,94784.96
2018-03-29T01:27:02.219Z,94786.20
2018-03-29T01:29:30.245Z,94787.56
2018-03-29T01:31:58.216Z,94779.94
2018-03-29T01:34:26.275Z,94781.41
2018-03-29T01:36:54.264Z,94772.59
2018-03-29T01:39:22.320Z,94765.30
2018-03-29T01:41:50.267Z,94768.80
2018-03-29T01:44:18.436Z,94760.81
2018-03-29T01:46:46.421Z,94757.28
2018-03-29T01:49:14.508Z,94749.89
2018-03-29T01:51:42.575Z,94744.40
2018-03-29T01:54:10.562Z,94744.20
2018-03-29T01:56:38.611Z,94747.80
2018-03-29T01:59:06.690Z,94752.27
2018-03-29T02:01:34.711Z,94752.83
2018-03-29T02:04:02.730Z,94749.19
2018-03-29T02:06:30.758Z,94749.63
2018-03-29T02:08:58.743Z,94738.85
2018-03-29T02:11:26.831Z,94741.94
2018-03-29T02:13:54.899Z,94739.06
2018-03-29T02:16:22.947Z,94751.17
2018-03-29T02:18:51.015Z,94764.41
2018-03-29T02:21:19.074Z,94730.62
2018-03-29T02:23:47.451Z,94739.83
2018-03-29T02:26:15.495Z,94739.18
2018-03-29T02:28:43.467Z,94735.90
2018-03-29T02:31:11.453Z,94735.63
2018-03-29T02:33:39.499Z,94735.83
2018-03-29T02:36:07.506Z,94742.69
2018-03-29T02:38:35.563Z,94729.97
2018-03-29T02:41:03.606Z,94729.97
2018-03-29T02:43:31.673Z,94727.16
2018-03-29T02:45:59.695Z,94737.83
2018-03-29T02:48:27.706Z,94747.94
2018-03-29T02:50:55.705Z,94749.63
2018-03-29T02:53:23.705Z,94760.10
2018-03-29T02:55:51.726Z,94763.72
2018-03-29T02:58:19.796Z,94765.16
2018-03-29T03:00:47.973Z,94768.18
2018-03-29T03:03:15.907Z,94770.70
2018-03-29T03:05:43.902Z,94772.74
2018-03-29T03:08:11.869Z,94770.73
2018-03-29T03:10:39.925Z,94763.54
2018-03-29T03:13:08.011Z,94761.51
2018-03-29T03:15:36.089Z,94757.69
2018-03-29T03:18:04.122Z,94770.39
2018-03-29T03:20:32.142Z,94767.38
2018-03-29T03:23:00.201Z,94770.80
2018-03-29T03:25:28.526Z,94764.11
2018-03-29T03:27:56.640Z,94765.39
2018-03-29T03:30:24.667Z,94772.19
2018-03-29T03:32:52.676Z,94777.00
2018-03-29T03:35:20.688Z,94780.47
2018-03-29T03:37:48.712Z,94779.94
2018-03-29T03:40:16.722Z,94790.08
2018-03-29T03:42:44.740Z,94789.21
2018-03-29T03:45:12.732Z,94801.63
2018-03-29T03:47:40.751Z,94781.63
2018-03-29T03:50:08.825Z,94796.45
2018-03-29T03:52:36.786Z,94802.51
2018-03-29T03:55:04.825Z,94797.47
2018-03-29T03:57:32.802Z,94803.98
2018-03-29T04:00:00.831Z,94808.70
2018-03-29T04:02:28.823Z,94797.34
2018-03-29T04:04:56.827Z,94820.00
2018-03-29T04:07:24.835Z,94821.92
2018-03-29T04:09:52.885Z,94839.58
2018-03-29T04:12:20.999Z,94841.85
2018-03-29T04:14:49.033Z,94839.85
2018-03-29T04:17:16.995Z,94841.90
2018-03-29T04:19:45.137Z,94842.33
2018-03-29T04:22:13.158Z,94846.33
2018-03-29T04:24:41.142Z,94843.63
2018-03-29T04:27:09.441Z,94845.08
2018-03-29T04:29:38.391Z,94832.42
2018-03-29T04:32:06.556Z,94836.97
2018-03-29T04:34:34.613Z,94846.03
2018-03-29T04:37:02.663Z,94847.03
2018-03-29T04:39:31.360Z,94853.52
2018-03-29T04:41:59.412Z,94857.72
2018-03-29T04:44:27.456Z,94853.98
2018-03-29T04:46:55.440Z,94859.23
2018-03-29T04:49:23.474Z,94859.98
2018-03-29T04:51:52.390Z,94864.14
2018-03-29T04:54:20.443Z,94870.72
2018-03-29T04:56:48.502Z,94866.73
2018-03-29T04:59:16.511Z,94864.73
2018-03-29T05:01:44.590Z,94864.77
2018-03-29T05:04:12.607Z,94866.30
2018-03-29T05:06:40.639Z,94870.09
2018-03-29T05:09:08.712Z,94876.25
2018-03-29T05:11:36.717Z,94871.26
2018-03-29T05:14:04.718Z,94887.30
2018-03-29T05:16:32.799Z,94886.22
2018-03-29T05:19:01.161Z,94894.90
2018-03-29T05:21:29.111Z,94903.14
2018-03-29T05:23:57.129Z,94905.87
2018-03-29T05:26:25.286Z,94901.80
2018-03-29T05:28:53.772Z,94896.16
2018-03-29T05:31:21.796Z,94904.92
2018-03-29T05:33:49.820Z,94912.52
2018-03-29T05:36:17.868Z,94916.34
2018-03-29T05:38:45.957Z,94914.88
2018-03-29T05:41:13.978Z,94916.36
2018-03-29T05:43:42.012Z,94912.41
2018-03-29T05:46:10.089Z,94908.52
2018-03-29T05:48:38.137Z,94911.95
2018-03-29T05:51:06.148Z,94915.67
2018-03-29T05:53:34.156Z,94919.95
2018-03-29T05:56:02.215Z,94933.19
2018-03-29T05:58:30.222Z,94928.68
2018-03-29T06:00:58.235Z,94924.21
2018-03-29T06:03:26.238Z,94925.23
2018-03-29T06:05:55.143Z,94936.73
2018-03-29T06:08:23.135Z,94929.09
2018-03-29T06:10:51.252Z,94920.41
2018-03-29T06:13:19.255Z,94929.75
2018-03-29T06:15:47.338Z,94928.97
2018-03-29T06:18:15.376Z,94935.86
2018-03-29T06:20:43.426Z,94943.20
2018-03-29T06:23:11.439Z,94938.77
2018-03-29T06:25:39.436Z,94935.70
2018-03-29T06:28:07.496Z,94931.50
2018-03-29T06:30:35.796Z,94936.95
2018-03-29T06:33:03.836Z,94945.59
2018-03-29T06:35:31.803Z,94937.27
2018-03-29T06:37:59.840Z,94934.35
2018-03-29T06:40:27.800Z,94947.69
2018-03-29T06:42:55.775Z,94937.50
2018-03-29T06:45:23.772Z,94947.05
2018-03-29T06:47:51.737Z,94945.44
2018-03-29T06:50:19.751Z,94944.45
2018-03-29T06:52:47.751Z,94952.98
2018-03-29T06:55:15.713Z,94953.44
2018-03-29T06:57:43.772Z,94955.53
2018-03-29T07:00:11.828Z,94964.48
2018-03-29T07:02:39.909Z,94965.06
2018-03-29T07:05:07.956Z,94980.78
2018-03-29T07:07:35.998Z,94978.55
2018-03-29T07:10:04.565Z,94972.61
2018-03-29T07:12:33.271Z,94975.70
2018-03-29T07:15:01.675Z,94970.37
2018-03-29T07:17:30.106Z,94976.48
2018-03-29T07:19:58.342Z,94978.05
2018-03-29T07:22:26.752Z,94977.08
2018-03-29T07:24:55.336Z,94982.27
2018-03-29T07:27:23.939Z,94987.17
2018-03-29T07:29:52.294Z,94981.62
2018-03-29T07:32:20.991Z,94987.93
2018-03-29T07:34:49.349Z,94989.51
2018-03-29T07:37:17.662Z,94983.68
2018-03-29T07:39:45.922Z,94989.69
2018-03-29T07:42:14.490Z,94989.39
2018-03-29T07:44:42.670Z,94992.69
2018-03-29T07:47:11.305Z,94992.51
2018-03-29T07:49:39.931Z,94993.52
2018-03-29T07:52:08.228Z,94990.78
2018-03-29T07:54:36.891Z,94993.54
2018-03-29T07:57:05.288Z,94993.60
2018-03-29T07:59:33.847Z,94995.02
2018-03-29T08:02:02.147Z,94998.77
2018-03-29T08:04:30.622Z,94998.63
2018-03-29T08:06:59.265Z,94991.31
2018-03-29T08:09:27.871Z,94997.67
2018-03-29T08:11:56.161Z,94992.36
2018-03-29T08:14:24.566Z,94986.25
2018-03-29T08:16:53.216Z,94981.06
2018-03-29T08:19:21.497Z,94973.78
2018-03-29T08:21:50.114Z,94971.88
2018-03-29T08:24:18.463Z,94971.23
2018-03-29T08:26:46.956Z,94968.66
2018-03-29T08:29:15.416Z,94962.81
2018-03-29T08:31:43.707Z,94963.99
2018-03-29T08:34:12.344Z,94962.72
2018-03-29T08:36:40.660Z,94962.03
2018-03-29T08:39:08.668Z,94963.78
2018-03-29T08:41:36.714Z,94961.93
2018-03-29T08:44:04.721Z,94959.09
2018-03-29T08:46:32.737Z,94960.96
2018-03-29T08:49:00.819Z,94957.63
2018-03-29T08:51:28.813Z,94962.11
2018-03-29T08:53:56.887Z,94959.89
2018-03-29T08:56:24.839Z,94958.91
2018-03-29T08:58:52.822Z,94947.57
2018-03-29T09:01:20.890Z,94951.58
2018-03-29T09:03:48.921Z,94940.32
2018-03-29T09:06:16.986Z,94935.27
2018-03-29T09:08:45.005Z,94945.22
2018-03-29T09:11:13.039Z,94943.73
2018-03-29T09:13:41.052Z,94858.82
2018-03-29T09:16:09.058Z,94946.98
2018-03-29T09:18:37.102Z,94950.23
2018-03-29T09:21:05.131Z,94943.92
2018-03-29T09:23:33.105Z,94945.45
2018-03-29T09:26:01.096Z,94945.07
2018-03-29T09:28:29.093Z,94935.36
2018-03-29T09:30:57.059Z,94942.03
2018-03-29T09:33:25.051Z,94930.28
2018-03-29T09:35:53.090Z,94933.35
2018-03-29T09:38:21.100Z,94926.08
2018-03-29T09:40:49.103Z,94918.64
2018-03-29T09:43:17.123Z,94910.58
2018-03-29T09:45:45.128Z,94914.47
2018-03-29T09:48:13.078Z,94905.00
2018-03-29T09:50:41.007Z,94909.37
2018-03-29T09:53:08.951Z,94906.09
2018-03-29T09:55:36.949Z,94898.61
2018-03-29T09:58:04.934Z,94895.98
2018-03-29T10:00:35.727Z,94890.41
2018-03-29T10:03:09.207Z,94883.84
2018-03-29T10:05:38.459Z,94877.53
2018-03-29T10:08:06.467Z,94877.48
2018-03-29T10:10:34.475Z,94876.55
2018-03-29T10:13:02.482Z,94877.25
2018-03-29T10:15:30.535Z,94872.30
2018-03-29T10:17:58.528Z,94873.30
2018-03-29T10:20:26.532Z,94878.39
2018-03-29T10:22:54.634Z,94868.62
2018-03-29T10:25:22.608Z,94876.98
2018-03-29T10:27:50.640Z,94872.81
2018-03-29T10:30:18.628Z,94879.59
2018-03-29T10:32:46.650Z,94866.34
2018-03-29T10:35:14.675Z,94874.84
2018-03-29T10:37:43.204Z,94877.47
2018-03-29T10:40:11.296Z,94869.38
2018-03-29T10:42:39.384Z,94865.47
2018-03-29T10:45:07.427Z,94865.80
2018-03-29T10:47:35.475Z,94866.13
2018-03-29T10:50:03.532Z,94842.80
2018-03-29T10:52:31.580Z,94852.84
2018-03-29T10:54:59.495Z,94852.61
2018-03-29T10:57:27.471Z,94848.82
2018-03-29T10:59:55.458Z,94850.78
2018-03-29T11:02:23.449Z,94854.23
2018-03-29T11:04:51.478Z,94849.73
2018-03-29T11:07:19.863Z,94840.47
2018-03-29T11:09:47.818Z,94842.52
2018-03-29T11:12:15.800Z,94837.31
2018-03-29T11:14:43.689Z,94831.69
2018-03-29T11:17:11.709Z,94833.33
2018-03-29T11:19:39.739Z,94827.52
2018-03-29T11:22:07.749Z,94831.19
2018-03-29T11:24:35.726Z,94830.07
2018-03-29T11:27:03.741Z,94836.49
2018-03-29T11:29:31.961Z,94836.80
2018-03-29T11:31:59.945Z,94820.39
2018-03-29T11:34:27.970Z,94825.41
2018-03-29T11:36:55.955Z,94811.13
2018-03-29T11:39:24.478Z,94809.50
2018-03-29T11:41:52.503Z,94804.93
2018-03-29T11:44:20.508Z,94795.25
2018-03-29T11:46:48.514Z,94798.27
2018-03-29T11:49:16.535Z,94801.79
2018-03-29T11:51:44.597Z,94793.47
2018-03-29T11:54:13.311Z,94786.95
2018-03-29T11:56:41.761Z,94786.06
2018-03-29T11:59:09.964Z,94784.66
2018-03-29T12:01:38.507Z,94785.80
2018-03-29T12:04:06.956Z,94774.23
2018-03-29T12:06:35.570Z,94771.16
2018-03-29T12:09:03.874Z,94768.92
2018-03-29T12:11:32.526Z,94763.35
2018-03-29T12:14:00.837Z,94760.75
2018-03-29T12:16:29.084Z,94753.39
2018-03-29T12:18:57.602Z,94752.67
2018-03-29T12:21:26.247Z,94751.62
2018-03-29T12:23:54.799Z,94742.87
2018-03-29T12:26:23.228Z,94744.69
2018-03-29T12:28:51.587Z,94744.66
2018-03-29T12:31:20.167Z,94737.11
2018-03-29T12:33:48.752Z,94734.57
2018-03-29T12:36:17.429Z,94736.42
2018-03-29T12:38:45.842Z,94726.02
2018-03-29T12:41:14.410Z,94719.22
2018-03-29T12:43:42.892Z,94722.02
2018-03-29T12:46:11.274Z,94724.18
2018-03-29T12:48:39.839Z,94722.52
2018-03-29T12:51:08.290Z,94730.74
2018-03-29T12:53:36.924Z,94724.25
2018-03-29T12:56:05.073Z,94720.89
2018-03-29T12:58:33.053Z,94724.30
2018-03-29T13:01:00.976Z,94719.17
2018-03-29T13:03:28.988Z,94711.95
2018-03-29T13:05:57.064Z,94711.50
2018-03-29T13:08:25.136Z,94703.15
2018-03-29T13:10:53.111Z,94715.37
2018-03-29T13:13:21.132Z,94704.88
2018-03-29T13:15:49.132Z,94711.20
2018-03-29T13:18:17.122Z,94709.25
2018-03-29T13:20:45.158Z,94683.26
2018-03-29T13:23:13.208Z,94709.80
2018-03-29T13:25:41.218Z,94717.02
2018-03-29T13:28:09.282Z,94719.48
2018-03-29T13:30:37.304Z,94716.25
2018-03-29T13:33:05.375Z,94706.06
2018-03-29T13:35:33.394Z,94713.97
2018-03-29T13:38:01.444Z,94701.29
2018-03-29T13:40:29.475Z,94708.59
2018-03-29T13:42:57.668Z,94704.43
2018-03-29T13:45:25.635Z,94701.48
2018-03-29T13:47:53.798Z,94704.09
2018-03-29T13:50:21.847Z,94704.22
2018-03-29T13:52:49.913Z,94706.08
2018-03-29T13:55:17.898Z,94706.16
2018-03-29T13:57:46.271Z,94704.40
2018-03-29T14:00:14.294Z,94702.95
2018-03-29T14:02:42.382Z,94698.10
2018-03-29T14:05:10.446Z,94704.92
2018-03-29T14:07:38.462Z,94710.42
2018-03-29T14:10:06.464Z,94718.34
2018-03-29T14:12:34.444Z,94707.95
2018-03-29T14:15:02.400Z,94714.02
2018-03-29T14:17:30.380Z,94714.19
2018-03-29T14:19:58.400Z,94716.00
2018-03-29T14:22:26.388Z,94710.08
2018-03-29T14:24:54.386Z,94717.64
2018-03-29T14:27:22.479Z,94730.53
2018-03-29T14:29:50.439Z,94722.80
2018-03-29T14:32:18.467Z,94718.78
2018-03-29T14:34:46.415Z,94720.78
2018-03-29T14:37:14.430Z,94721.54
2018-03-29T14:39:42.454Z,94720.45
2018-03-29T14:42:10.506Z,94718.66
2018-03-29T14:44:38.792Z,94716.82
2018-03-29T14:47:06.824Z,94714.91
2018-03-29T14:49:34.820Z,94678.31
2018-03-29T14:52:02.817Z,94712.16
2018-03-29T14:54:30.776Z,94714.84
2018-03-29T14:56:58.772Z,94713.73
2018-03-29T14:59:26.791Z,94696.66
2018-03-29T15:01:54.734Z,94718.81
2018-03-29T15:04:22.710Z,94715.21
2018-03-29T15:06:50.718Z,94717.89
2018-03-29T15:09:18.677Z,94722.60
2018-03-29T15:11:46.692Z,94725.45
2018-03-29T15:14:14.727Z,94723.45
2018-03-29T15:16:42.737Z,94737.86
2018-03-29T15:19:10.691Z,94698.07
2018-03-29T15:21:38.722Z,94736.07
2018-03-29T15:24:06.739Z,94752.03
2018-03-29T15:26:34.798Z,94747.56
2018-03-29T15:29:03.152Z,94751.45
2018-03-29T15:31:31.591Z,94751.66
2018-03-29T15:34:00.020Z,94750.44
2018-03-29T15:36:28.517Z,94750.76
2018-03-29T15:38:57.043Z,94753.06
2018-03-29T15:41:26.439Z,94738.14
2018-03-29T15:43:54.810Z,94758.03
2018-03-29T15:46:23.456Z,94758.40
2018-03-29T15:48:52.200Z,94767.30
2018-03-29T15:51:20.631Z,94764.14
2018-03-29T15:53:49.081Z,94770.27
2018-03-29T15:56:17.523Z,94690.38
2018-03-29T15:58:45.756Z,94776.72
2018-03-29T16:01:14.167Z,94778.16
2018-03-29T16:03:42.662Z,94779.33
2018-03-29T16:06:11.201Z,94794.05
2018-03-29T16:08:39.427Z,94791.28
2018-03-29T16:11:08.114Z,94800.03
2018-03-29T16:13:36.379Z,94799.41
2018-03-29T16:16:05.061Z,94797.61
2018-03-29T16:18:33.430Z,94807.41
2018-03-29T16:21:01.928Z,94811.89
2018-03-29T16:23:30.599Z,94824.15
2018-03-29T16:25:58.945Z,94817.52
2018-03-29T16:28:27.374Z,94817.44
2018-03-29T16:30:55.935Z,94818.50
2018-03-29T16:33:24.352Z,94823.08
2018-03-29T16:35:52.812Z,94826.37
2018-03-29T16:38:21.385Z,94833.10
2018-03-29T16:40:49.770Z,94839.66
2018-03-29T16:43:18.460Z,94834.76
2018-03-29T16:45:46.818Z,94836.62
2018-03-29T16:48:15.414Z,94832.25
2018-03-29T16:50:43.884Z,94845.20
2018-03-29T16:53:12.329Z,94853.37
2018-03-29T16:55:40.954Z,94863.27
2018-03-29T16:58:09.531Z,94872.80
2018-03-29T17:00:38.424Z,94869.67
2018-03-29T17:03:06.949Z,94875.34
2018-03-29T17:05:35.495Z,94878.15
2018-03-29T17:08:03.964Z,94894.82
2018-03-29T17:10:32.446Z,94886.34
2018-03-29T17:13:00.732Z,94900.32
2018-03-29T17:15:29.416Z,94910.70
2018-03-29T17:17:57.606Z,94925.23
2018-03-29T17:20:26.162Z,94928.94
2018-03-29T17:22:54.506Z,94937.14
2018-03-29T17:25:22.941Z,94929.67
2018-03-29T17:27:51.060Z,94947.30
2018-03-29T17:30:19.529Z,94949.67
2018-03-29T17:32:48.056Z,94959.77
2018-03-29T17:35:16.447Z,94959.27
2018-03-29T17:37:44.811Z,94970.45
2018-03-29T17:40:13.254Z,94987.21
2018-03-29T17:42:41.563Z,94992.29
2018-03-29T17:45:09.952Z,94996.77
2018-03-29T17:47:38.430Z,95001.80
2018-03-29T17:50:07.410Z,95016.37
2018-03-29T17:52:35.700Z,95022.52
2018-03-29T17:55:04.271Z,95012.10
2018-03-29T17:57:32.556Z,95015.43
2018-03-29T18:00:00.958Z,95029.19
2018-03-29T18:02:29.498Z,95032.14
2018-03-29T18:04:57.988Z,95042.72
2018-03-29T18:07:26.495Z,95047.95
2018-03-29T18:09:55.163Z,95050.14
2018-03-29T18:12:24.043Z,95050.11
2018-03-29T18:14:52.628Z,95062.52
2018-03-29T18:17:21.279Z,95074.41
2018-03-29T18:19:49.819Z,95081.12
2018-03-29T18:22:18.312Z,95090.99
2018-03-29T18:24:46.763Z,95095.59
2018-03-29T18:27:15.233Z,95099.69
2018-03-29T18:29:43.420Z,95105.36
2018-03-29T18:32:11.883Z,95106.88
2018-03-29T18:34:40.297Z,95115.00
2018-03-29T18:37:08.952Z,95119.17
2018-03-29T18:39:37.543Z,95132.62
2018-03-29T18:42:06.219Z,95134.58
2018-03-29T18:44:34.390Z,95134.30
2018-03-29T18:47:02.561Z,95144.47
2018-03-29T18:49:30.967Z,95156.06
2018-03-29T18:51:59.639Z,95167.13
2018-03-29T18:54:28.328Z,95161.72
2018-03-29T18:56:57.121Z,95167.38
2018-03-29T18:59:25.375Z,95150.38
2018-03-29T19:01:53.871Z,95179.95
2018-03-29T19:04:22.348Z,95175.79
2018-03-29T19:06:50.914Z,95187.16
2018-03-29T19:09:19.215Z,95190.47
2018-03-29T19:11:47.635Z,95190.59
2018-03-29T19:14:16.122Z,95182.64
2018-03-29T19:16:44.561Z,95192.30
2018-03-29T19:19:13.135Z,95188.09
2018-03-29T19:21:41.823Z,95185.94
2018-03-29T19:24:10.377Z,95186.86
2018-03-29T19:26:38.859Z,95185.91
2018-03-29T19:29:07.259Z,95188.26
2018-03-29T19:31:36.040Z,95200.18
2018-03-29T19:34:04.437Z,95199.41
2018-03-29T19:36:33.094Z,95194.01
2018-03-29T19:39:01.427Z,95191.81
2018-03-29T19:41:30.069Z,95200.48
2018-03-29T19:43:58.502Z,95195.14
2018-03-29T19:46:27.040Z,95200.55
2018-03-29T19:48:55.616Z,95219.53
2018-03-29T19:51:24.287Z,95219.90
2018-03-29T19:53:53.088Z,95217.13
2018-03-29T19:56:21.450Z,95212.02
2018-03-29T19:58:49.826Z,95222.27
2018-03-29T20:01:18.110Z,95227.00
2018-03-29T20:03:46.478Z,95225.03
2018-03-29T20:06:14.975Z,95225.18
2018-03-29T20:08:43.549Z,95228.43
2018-03-29T20:11:12.025Z,95229.28
2018-03-29T20:13:40.510Z,95227.75
2018-03-29T20:16:08.878Z,95229.80
2018-03-29T20:18:37.208Z,95241.39
2018-03-29T20:21:05.646Z,95249.94
2018-03-29T20:23:34.326Z,95261.45
2018-03-29T20:26:02.720Z,95267.34
2018-03-29T20:28:31.396Z,95264.43
2018-03-29T20:30:59.666Z,95263.72
2018-03-29T20:33:28.142Z,95265.67
2018-03-29T20:35:56.459Z,95270.81
2018-03-29T20:38:24.821Z,95263.24
2018-03-29T20:40:53.374Z,95233.45
2018-03-29T20:43:21.685Z,95277.90
2018-03-29T20:45:49.838Z,95278.67
2018-03-29T20:48:18.172Z,95281.10
2018-03-29T20:50:46.713Z,95282.51
2018-03-29T20:53:15.163Z,95282.23
2018-03-29T20:55:43.634Z,95288.65
2018-03-29T20:58:11.824Z,95289.92
2018-03-29T21:00:40.126Z,95300.90
2018-03-29T21:03:08.712Z,95300.02
2018-03-29T21:05:37.253Z,95301.87
2018-03-29T21:08:05.655Z,95276.49
2018-03-29T21:10:34.114Z,95306.34
2018-03-29T21:13:02.320Z,95299.17
2018-03-29T21:15:30.571Z,95299.13
2018-03-29T21:17:59.120Z,95301.39
2018-03-29T21:20:27.543Z,95308.11
2018-03-29T21:22:56.110Z,95309.23
2018-03-29T21:25:24.306Z,95317.31
2018-03-29T21:27:52.778Z,95312.14
2018-03-29T21:30:20.980Z,95316.03
2018-03-29T21:32:49.527Z,95305.99
2018-03-29T21:35:18.458Z,95315.28
2018-03-29T21:37:46.824Z,95321.80
2018-03-29T21:40:15.579Z,95321.36
2018-03-29T21:42:44.070Z,95328.94
2018-03-29T21:45:12.541Z,95327.08
2018-03-29T21:47:40.951Z,95332.55
2018-03-29T21:50:09.506Z,95330.70
2018-03-29T21:52:37.978Z,95331.42
2018-03-29T21:55:06.176Z,95343.95
2018-03-29T21:57:34.734Z,95342.45
2018-03-29T22:00:02.960Z,95348.52
2018-03-29T22:02:31.292Z,95344.73
2018-03-29T22:04:59.807Z,95342.33
2018-03-29T22:07:28.723Z,95346.86
2018-03-29T22:09:57.244Z,95363.45
2018-03-29T22:12:25.782Z,95360.02
2018-03-29T22:14:54.070Z,95356.15
2018-03-29T22:17:22.678Z,95361.06
2018-03-29T22:19:50.831Z,95358.23
2018-03-29T22:22:19.440Z,95361.02
2018-03-29T22:24:48.437Z,95353.72
2018-03-29T22:27:16.835Z,95362.31
2018-03-29T22:29:45.399Z,95366.15
2018-03-29T22:32:13.905Z,95361.27
2018-03-29T22:34:42.505Z,95362.02
2018-03-29T22:37:11.210Z,95366.23
2018-03-29T22:39:39.516Z,95364.13
2018-03-29T22:42:08.000Z,95368.68
2018-03-29T22:44:36.299Z,95368.02
2018-03-29T22:47:04.650Z,95375.78
2018-03-29T22:49:32.942Z,95373.88
2018-03-29T22:52:01.403Z,95379.31
2018-03-29T22:54:29.986Z,95373.80
2018-03-29T22:56:58.369Z,95383.30
2018-03-29T22:59:26.972Z,95382.16
2018-03-29T23:01:55.687Z,95384.05
2018-03-29T23:04:24.074Z,95387.36
2018-03-29T23:06:52.298Z,95390.23
2018-03-29T23:09:20.596Z,95387.58
2018-03-29T23:11:49.664Z,95401.16
2018-03-29T23:14:18.144Z,95392.01
2018-03-29T23:16:46.612Z,95393.64
2018-03-29T23:19:15.011Z,95388.38
2018-03-29T23:21:43.274Z,95390.72
2018-03-29T23:24:12.063Z,95397.11
2018-03-29T23:26:40.653Z,95396.97
2018-03-29T23:29:08.932Z,95399.75
2018-03-29T23:31:37.232Z,95398.06
2018-03-29T23:34:05.691Z,95402.02
2018-03-29T23:36:34.154Z,95403.69
2018-03-29T23:39:02.551Z,95408.11
2018-03-29T23:41:31.027Z,95411.89
2018-03-29T23:43:59.390Z,95414.02
2018-03-29T23:46:28.046Z,95415.80
2018-03-29T23:48:56.257Z,95413.80
2018-03-29T23:51:24.806Z,95413.40
2018-03-29T23:53:53.136Z,95415.53
2018-03-29T23:56:21.283Z,95403.60
2018-03-29T23:58:49.644Z,95405.09
